This is the latest recevied weather packets stored in our database for station/object HP1COO-13. If no packets are shown the sender has not sent any weather packets the latest 10 day(s).
| Time | Temp. | Humidity | Pressure | Rain* | Wind** | Luminosity | Snow |
|---|---|---|---|---|---|---|---|
| 1787448695 | 25.56° C | 95% | 1009 hPa | 0 mm | - | - | - |
| 1787448062 | 25.56° C | 95% | 1008.9 hPa | 0 mm | - | - | - |
| 1787447429 | 25° C | 96% | 1008.8 hPa | 0 mm | - | - | - |
| 1787446796 | 25° C | 96% | 1008.7 hPa | 0 mm | - | - | - |
| 1787446163 | 25° C | 96% | 1008.6 hPa | 0 mm | - | - | - |
| 1787445530 | 25° C | 96% | 1008.5 hPa | 0 mm | - | - | - |
| 1787444898 | 25° C | 97% | 1008.3 hPa | 0 mm | - | - | - |
| 1787444264 | 24.44° C | 98% | 1008.5 hPa | 0 mm | - | - | - |
| 1787443631 | 25° C | 98% | 1008.4 hPa | 0 mm | - | - | - |
| 1787442998 | 25° C | 97% | 1008.7 hPa | 0 mm | - | - | - |
| 1787442365 | 24.44° C | 98% | 1008.5 hPa | 0.25 mm | - | - | - |
| 1787441732 | 24.44° C | 98% | 1008.1 hPa | 0.51 mm | - | - | - |
| 1787441099 | 24.44° C | 98% | 1008 hPa | 1.27 mm | - | - | - |
| 1787440467 | 24.44° C | 98% | 1008 hPa | 3.81 mm | - | - | - |
| 1787439200 | 23.89° C | 98% | 1007.6 hPa | 9.65 mm | - | - | - |
| 1787438567 | 23.89° C | 97% | 1007.8 hPa | 11.94 mm | - | - | - |
| 1787437934 | 23.89° C | 97% | 1008.1 hPa | 12.7 mm | - | - | - |
| 1787437301 | 23.89° C | 96% | 1007.8 hPa | 12.45 mm | - | - | - |
| 1787436668 | 24.44° C | 96% | 1008 hPa | 8.89 mm | - | - | - |
| 1787436035 | 25° C | 98% | 1008.5 hPa | 5.08 mm | - | - | - |
| 1787435402 | 25° C | 97% | 1008 hPa | 8.38 mm | - | - | - |
| 1787434769 | 25° C | 97% | 1007.3 hPa | 13.72 mm | - | - | - |
| 1787434136 | 25° C | 96% | 1007.3 hPa | 15.24 mm | - | - | - |
| 1787433503 | 25° C | 95% | 1006.9 hPa | 27.94 mm | - | - | - |
| 1787432870 | 25° C | 95% | 1006.9 hPa | 34.29 mm | - | - | - |
* Rain latest hour (hover to see other rain measurements)
** Current wind speed in m/s (hover to see current wind gust speed)